New Boston, New Hampshire
Current Conditions -  °F | °C
As of 1:53 PM on Monday 20 Oct 2014 (Local Time) from KMHT Reporting Station
Scattered Clouds Scattered Clouds  
Wind Chill: 55°   Ceiling: Unl
Heat Index: 55°   Visibility: 10mi
Dew Point: 29°   Wind: 6mph
Humidity: 37%   Direction: 220°SW
Pressure: 29.94"   Gusts: NA
Location:  42.98°N, 71.69°W
Report Text: KMHT 201753Z 22005KT 10SM FEW130 SCT250 13/M02 A2994 RMK AO2 SLP155 T01281017 10128 20028 58027
Loading
Personal Weather Stations






























Interactive Weather Map
Tropical Storm Tracking
New forecast layout! Learn more

10-Day Weather Forecast

Advertisements
Track Severe Weather on mobile